Time;durP1;ratioP1;P1;durP2;ratioP2;P2;SDS_P1;SDS_P2;PMS_P1;PMS_P2;Temp;Humidity;BMP_temperature;BMP_pressure;BME280_temperature;BME280_humidity;BME280_pressure;Samples;Min_cycle;Max_cycle;Signal;HPM_P1;HPM_P2
2021/07/12 00:00:37;;;;;;;2.10;2.00;;;;;;;14.26;73.86;95471.84;4977853;28;20192;-77
2021/07/12 00:03:03;;;;;;;2.50;2.30;;;;;;;14.24;74.04;95468.59;4977037;28;20232;-78
2021/07/12 00:05:28;;;;;;;2.03;1.93;;;;;;;14.29;73.70;95471.50;4993881;28;20202;-76
2021/07/12 00:07:54;;;;;;;6.40;2.20;;;;;;;14.18;74.20;95472.72;4963025;28;20181;-78
2021/07/12 00:10:21;;;;;;;5.40;2.17;;;;;;;14.18;74.18;95482.34;4961400;28;20184;-78
2021/07/12 00:12:48;;;;;;;2.47;2.28;;;;;;;14.17;74.36;95484.16;4979592;28;20204;-77
2021/07/12 00:15:16;;;;;;;2.28;2.08;;;;;;;14.08;74.66;95479.13;4960654;28;20185;-78
2021/07/12 00:17:42;;;;;;;2.42;2.22;;;;;;;14.12;74.60;95467.34;4959562;29;20268;-78
2021/07/12 00:20:09;;;;;;;2.88;2.45;;;;;;;14.12;74.59;95464.75;4966165;28;20291;-77
2021/07/12 00:22:35;;;;;;;2.97;2.40;;;;;;;14.12;74.38;95452.50;4978852;28;20575;-78
2021/07/12 00:25:01;;;;;;;4.00;2.00;;;;;;;14.24;73.92;95455.56;4962306;28;20180;-78
2021/07/12 00:27:26;;;;;;;2.72;2.22;;;;;;;14.10;74.79;95453.66;4978064;28;20183;-78
2021/07/12 00:29:52;;;;;;;4.07;2.53;;;;;;;14.06;74.64;95452.38;4962755;28;20193;-78
2021/07/12 00:32:17;;;;;;;2.30;2.07;;;;;;;14.07;74.79;95454.00;4958861;29;20574;-77
2021/07/12 00:34:43;;;;;;;3.03;2.30;;;;;;;14.01;75.00;95452.88;4974389;28;20180;-78
2021/07/12 00:37:08;;;;;;;2.20;2.00;;;;;;;14.06;74.90;95447.97;4978687;28;20226;-78
2021/07/12 00:39:33;;;;;;;2.20;2.00;;;;;;;14.00;74.54;95445.22;4978222;28;20599;-76
2021/07/12 00:41:59;;;;;;;3.37;2.10;;;;;;;14.03;75.30;95443.06;4977005;28;20184;-78
2021/07/12 00:44:26;;;;;;;2.60;2.40;;;;;;;14.00;75.28;95432.19;4978208;28;20219;-77
2021/07/12 00:46:52;;;;;;;3.07;2.37;;;;;;;13.98;75.83;95436.75;4942836;29;20265;-78
2021/07/12 00:49:18;;;;;;;2.90;2.20;;;;;;;13.95;76.08;95432.69;4975632;28;20185;-77
2021/07/12 00:51:43;;;;;;;2.40;2.20;;;;;;;14.01;76.10;95421.56;4976129;28;20204;-77
2021/07/12 00:54:08;;;;;;;2.90;2.30;;;;;;;13.99;75.81;95425.34;4961424;28;20253;-78
2021/07/12 00:56:34;;;;;;;3.60;2.43;;;;;;;13.95;76.04;95416.19;4978608;28;20625;-78
2021/07/12 00:58:59;;;;;;;2.20;2.03;;;;;;;13.98;76.03;95418.50;4978435;28;20737;-77
2021/07/12 01:01:24;;;;;;;3.07;2.10;;;;;;;13.95;76.42;95417.00;4979158;28;20208;-78
2021/07/12 01:03:50;;;;;;;2.60;2.40;;;;;;;13.95;76.54;95418.81;4977689;28;20259;-77
2021/07/12 01:06:15;;;;;;;2.40;2.20;;;;;;;13.89;76.93;95413.31;4979436;28;20196;-78
2021/07/12 01:08:41;;;;;;;2.40;2.20;;;;;;;13.88;76.69;95413.47;4963729;28;20184;-77
2021/07/12 01:11:32;;;;;;;2.40;2.20;;;;;;;13.83;76.69;95395.72;4982921;28;20189;-77
2021/07/12 01:14:24;;;;;;;2.00;1.80;;;;;;;13.85;76.73;95404.19;4962870;28;20415;-78
2021/07/12 01:17:03;;;;;;;2.70;2.10;;;;;;;13.78;76.77;95405.03;4978326;28;20653;-78
2021/07/12 01:20:07;;;;;;;3.80;2.30;;;;;;;13.73;77.37;95405.56;4960067;28;20640;-77
2021/07/12 01:22:57;;;;;;;2.80;2.20;;;;;;;13.71;77.60;95402.31;4975699;28;20215;-78
2021/07/12 01:25:51;;;;;;;2.13;2.00;;;;;;;13.77;77.57;95391.16;4958006;28;20188;-77
2021/07/12 01:28:53;;;;;;;2.43;2.23;;;;;;;13.70;77.65;95377.19;4969289;28;20200;-77
2021/07/12 01:31:44;;;;;;;3.10;1.87;;;;;;;13.68;77.95;95381.75;4975994;28;20192;-76
2021/07/12 01:34:14;;;;;;;2.70;2.03;;;;;;;13.68;77.54;95381.75;4975647;28;20197;-77
2021/07/12 01:36:43;;;;;;;1.97;1.87;;;;;;;13.70;77.59;95387.63;4975276;28;20279;-77
2021/07/12 01:39:14;;;;;;;2.70;2.10;;;;;;;13.70;77.53;95385.03;4974817;28;20275;-77
2021/07/12 01:41:48;;;;;;;2.10;1.80;;;;;;;13.68;77.90;95388.75;4975685;28;20183;-77
2021/07/12 01:44:45;;;;;;;3.27;2.37;;;;;;;13.64;78.25;95398.75;4976302;28;20357;-78
2021/07/12 01:47:15;;;;;;;2.47;2.27;;;;;;;13.63;78.42;95393.69;4967089;28;20200;-77
2021/07/12 01:49:49;;;;;;;2.20;1.67;;;;;;;13.65;78.21;95381.28;4960276;28;20195;-78
2021/07/12 01:52:23;;;;;;;2.40;1.90;;;;;;;13.63;78.05;95378.84;4977248;28;20200;-78
2021/07/12 01:55:08;;;;;;;2.23;2.03;;;;;;;13.65;78.21;95379.50;4976477;28;20267;-78
2021/07/12 01:57:36;;;;;;;3.10;2.40;;;;;;;13.64;78.53;95390.91;4974805;28;20241;-77
2021/07/12 02:00:07;;;;;;;2.00;1.80;;;;;;;13.76;78.42;95383.50;4959628;28;20188;-77
2021/07/12 02:02:33;;;;;;;2.10;1.90;;;;;;;13.69;78.64;95382.56;4959914;28;20212;-77
2021/07/12 02:05:07;;;;;;;2.80;1.77;;;;;;;13.69;78.39;95391.19;4976784;28;20209;-77
2021/07/12 02:07:35;;;;;;;3.47;1.80;;;;;;;13.72;78.01;95385.66;4959436;28;20195;-77
2021/07/12 02:10:03;;;;;;;3.23;2.37;;;;;;;13.81;77.86;95383.81;4976085;28;20626;-77
2021/07/12 02:12:30;;;;;;;3.00;1.97;;;;;;;13.71;77.88;95383.22;4976936;28;20291;-77
2021/07/12 02:14:56;;;;;;;2.53;2.20;;;;;;;13.68;78.40;95394.00;4976512;28;20268;-78
2021/07/12 02:17:22;;;;;;;3.57;2.33;;;;;;;13.67;78.41;95393.19;4959295;28;20216;-78
2021/07/12 02:19:48;;;;;;;2.40;2.20;;;;;;;13.60;78.75;95400.91;4960742;28;20189;-78
2021/07/12 02:22:15;;;;;;;2.77;2.30;;;;;;;13.68;78.81;95394.78;4975871;28;20687;-77
2021/07/12 02:24:41;;;;;;;2.30;2.10;;;;;;;13.72;78.73;95385.66;4975852;28;20212;-77
2021/07/12 02:27:07;;;;;;;3.23;2.10;;;;;;;13.70;78.63;95385.03;4976355;28;20176;-77
2021/07/12 02:29:32;;;;;;;2.20;2.00;;;;;;;13.73;78.78;95376.03;4975019;28;20316;-77
2021/07/12 02:31:59;;;;;;;2.20;2.00;;;;;;;13.78;78.69;95374.56;4959424;28;20195;-78
2021/07/12 02:34:24;;;;;;;2.63;2.20;;;;;;;13.83;78.24;95372.22;4960296;28;20200;-78
2021/07/12 02:36:51;;;;;;;2.50;2.30;;;;;;;13.86;77.80;95371.06;4975629;28;20231;-78
2021/07/12 02:39:17;;;;;;;2.57;2.00;;;;;;;13.79;78.59;95377.97;4952803;28;20180;-78
2021/07/12 02:41:43;;;;;;;1.93;1.80;;;;;;;13.76;78.62;95383.50;4976172;28;20189;-77
2021/07/12 02:44:10;;;;;;;2.20;2.00;;;;;;;13.80;78.55;95376.97;4978092;28;20216;-77
2021/07/12 02:46:38;;;;;;;2.27;2.07;;;;;;;13.77;78.80;95372.09;4957282;28;20613;-78
2021/07/12 02:49:03;;;;;;;2.30;2.10;;;;;;;13.82;78.54;95370.59;4975970;28;20264;-78
2021/07/12 02:51:36;;;;;;;2.30;2.10;;;;;;;13.80;78.30;95374.38;4976150;28;20212;-77
2021/07/12 02:54:04;;;;;;;2.43;2.00;;;;;;;13.84;78.09;95373.84;4960741;28;20283;-77
2021/07/12 02:56:30;;;;;;;2.40;2.07;;;;;;;13.86;78.06;95371.06;4958967;28;20187;-78
2021/07/12 02:58:56;;;;;;;2.87;1.97;;;;;;;13.82;78.07;95365.38;4976096;28;20184;-77
2021/07/12 03:01:21;;;;;;;2.83;1.70;;;;;;;13.79;78.04;95365.72;4976920;28;20660;-77
2021/07/12 03:03:46;;;;;;;2.87;2.50;;;;;;;13.79;78.25;95360.50;4976765;28;20215;-78
2021/07/12 03:06:13;;;;;;;3.27;2.30;;;;;;;13.84;78.08;95367.81;4977795;28;20184;-78
2021/07/12 03:08:53;;;;;;;2.30;2.00;;;;;;;13.76;78.01;95360.84;4975333;28;20189;-77
2021/07/12 03:11:20;;;;;;;2.27;2.07;;;;;;;13.80;77.85;95353.50;4968564;28;20188;-78
2021/07/12 03:13:54;;;;;;;4.33;2.20;;;;;;;13.76;78.26;95344.38;4976684;28;20192;-78
2021/07/12 03:16:19;;;;;;;2.33;2.00;;;;;;;13.76;77.86;95345.19;4961388;28;20224;-77
2021/07/12 03:18:47;;;;;;;2.23;2.07;;;;;;;13.76;77.83;95336.53;4978453;28;20259;-77
2021/07/12 03:21:13;;;;;;;3.67;1.87;;;;;;;13.72;78.25;95335.28;4977427;28;20192;-77
2021/07/12 03:23:41;;;;;;;2.33;2.13;;;;;;;13.60;78.10;95334.81;4944864;29;20715;-77
2021/07/12 03:26:07;;;;;;;2.40;2.20;;;;;;;13.57;78.36;95335.19;4977736;28;20170;-76
2021/07/12 03:28:33;;;;;;;2.23;2.03;;;;;;;13.64;78.32;95340.53;4963534;28;20687;-76
2021/07/12 03:30:59;;;;;;;2.30;2.10;;;;;;;13.53;78.05;95334.72;4964291;28;20184;-78
2021/07/12 03:33:25;;;;;;;3.00;2.20;;;;;;;13.52;78.71;95327.06;4980453;28;20199;-78
2021/07/12 03:35:53;;;;;;;2.20;2.00;;;;;;;13.53;78.69;95332.09;4963468;28;20176;-78
2021/07/12 03:38:19;;;;;;;2.20;2.00;;;;;;;13.45;78.39;95339.16;4963552;28;20212;-78
2021/07/12 03:40:45;;;;;;;2.40;2.20;;;;;;;13.49;78.94;95343.84;4981385;28;20189;-78
2021/07/12 03:43:12;;;;;;;2.87;2.23;;;;;;;13.45;78.95;95342.56;4978474;28;20219;-78
2021/07/12 03:45:38;;;;;;;2.10;1.90;;;;;;;13.47;79.28;95343.22;4979721;28;20173;-76
2021/07/12 03:48:04;;;;;;;2.67;2.07;;;;;;;13.53;79.17;95341.72;4979159;28;20172;-78
2021/07/12 03:50:30;;;;;;;2.80;2.00;;;;;;;13.47;79.87;95337.19;4977928;28;20189;-77
2021/07/12 03:52:55;;;;;;;2.60;2.40;;;;;;;13.65;78.86;95336.94;4975722;28;20212;-77
2021/07/12 03:55:22;;;;;;;2.90;2.10;;;;;;;13.64;79.01;95333.50;4960047;29;20177;-78
2021/07/12 03:57:48;;;;;;;2.90;2.60;;;;;;;13.74;78.47;95330.69;4944413;29;20378;-77
2021/07/12 04:00:17;;;;;;;4.17;2.43;;;;;;;13.83;78.30;95330.47;4975890;28;20185;-77
2021/07/12 04:02:42;;;;;;;2.33;2.10;;;;;;;14.99;73.73;95316.28;4959422;29;20200;-78
2021/07/12 04:05:09;;;;;;;2.60;2.20;;;;;;;16.03;68.53;95315.13;4962401;28;20181;-78
2021/07/12 04:07:34;;;;;;;2.03;1.77;;;;;;;17.36;64.54;95306.41;4980325;28;20169;-77
2021/07/12 04:10:00;;;;;;;1.80;1.70;;;;;;;17.67;62.07;95299.84;4978837;28;20183;-79
2021/07/12 04:12:25;;;;;;;2.10;1.90;;;;;;;18.66;60.87;95305.31;4977239;28;20216;-78
2021/07/12 04:14:52;;;;;;;1.77;1.67;;;;;;;19.25;57.90;95307.84;4962059;28;20657;-77
2021/07/12 04:17:17;;;;;;;2.22;1.92;;;;;;;20.18;53.21;95306.63;4979014;28;20176;-79
2021/07/12 04:19:43;;;;;;;2.85;1.58;;;;;;;20.87;51.57;95311.81;4962340;28;20275;-78
2021/07/12 04:22:08;;;;;;;1.55;1.45;;;;;;;21.47;49.14;95306.75;4976969;28;20295;-78
2021/07/12 04:24:33;;;;;;;2.53;1.58;;;;;;;22.04;49.20;95307.25;4977698;28;20211;-79
2021/07/12 04:26:59;;;;;;;1.40;1.30;;;;;;;21.51;49.30;95311.59;4977286;28;20185;-78
2021/07/12 04:29:24;;;;;;;1.73;1.50;;;;;;;21.46;50.24;95312.22;4975958;28;20212;-79
2021/07/12 04:31:49;;;;;;;2.47;1.50;;;;;;;20.01;52.95;95312.41;4975933;28;20176;-78
2021/07/12 04:34:15;;;;;;;1.67;1.58;;;;;;;20.71;51.74;95301.00;4958994;28;20188;-78
2021/07/12 04:36:40;;;;;;;2.58;1.50;;;;;;;21.87;48.01;95306.25;4956194;29;20716;-79
2021/07/12 04:39:06;;;;;;;1.67;1.58;;;;;;;22.17;46.04;95305.47;4956047;29;20204;-79
2021/07/12 04:41:31;;;;;;;1.75;1.40;;;;;;;21.52;49.01;95306.06;4956094;29;20596;-78
2021/07/12 04:43:56;;;;;;;1.70;1.45;;;;;;;21.77;48.52;95312.06;4964699;28;20631;-79
2021/07/12 04:46:22;;;;;;;1.73;1.63;;;;;;;22.13;47.13;95307.75;4960357;28;20184;-79
2021/07/12 04:48:47;;;;;;;3.15;1.67;;;;;;;24.08;41.94;95316.34;4959686;28;20544;-78
2021/07/12 04:51:12;;;;;;;3.50;1.60;;;;;;;24.15;42.65;95328.44;4975520;28;20176;-79
2021/07/12 04:53:38;;;;;;;2.35;1.60;;;;;;;23.83;43.59;95330.75;4975832;28;20711;-77
2021/07/12 04:56:03;;;;;;;1.77;1.63;;;;;;;24.40;41.24;95330.78;4974455;28;20222;-78
2021/07/12 04:58:31;;;;;;;2.40;1.70;;;;;;;25.32;38.85;95334.88;4976307;28;20169;-77
2021/07/12 05:00:58;;;;;;;1.80;1.70;;;;;;;25.45;38.68;95326.56;4974765;28;20259;-78
2021/07/12 05:03:30;;;;;;;1.73;1.40;;;;;;;24.27;41.03;95334.47;4974423;28;20197;-78
2021/07/12 05:05:55;;;;;;;1.67;1.33;;;;;;;24.35;41.37;95322.72;4974667;28;20192;-79
2021/07/12 05:08:20;;;;;;;1.88;1.30;;;;;;;24.59;41.50;95326.06;4976569;28;20555;-79
2021/07/12 05:10:46;;;;;;;1.48;1.38;;;;;;;25.20;40.48;95318.25;4955103;29;20189;-77
2021/07/12 05:13:11;;;;;;;2.13;1.30;;;;;;;24.78;40.55;95316.00;4958944;28;20283;-79
2021/07/12 05:15:37;;;;;;;1.77;1.40;;;;;;;25.65;39.61;95310.06;4955787;28;20239;-77
2021/07/12 05:18:03;;;;;;;4.47;1.50;;;;;;;25.37;39.29;95303.06;4971212;28;20211;-77
2021/07/12 05:20:28;;;;;;;1.63;1.20;;;;;;;26.09;38.23;95299.41;4971474;28;20200;-78
2021/07/12 05:22:53;;;;;;;2.47;1.50;;;;;;;26.36;37.62;95304.72;4985675;28;20706;-77
2021/07/12 05:25:18;;;;;;;1.38;1.13;;;;;;;27.04;35.90;95298.69;4970662;28;20177;-78
2021/07/12 05:27:44;;;;;;;1.30;1.20;;;;;;;27.08;35.89;95294.44;4964610;28;20204;-79
2021/07/12 05:30:10;;;;;;;1.40;1.30;;;;;;;28.08;34.80;95285.53;4973720;28;20187;-78
2021/07/12 05:32:36;;;;;;;1.35;1.25;;;;;;;27.46;35.41;95276.50;4974164;28;20262;-79
2021/07/12 05:35:02;;;;;;;1.88;1.45;;;;;;;27.87;35.42;95282.03;4960338;28;20209;-79
2021/07/12 05:37:28;;;;;;;3.72;1.50;;;;;;;28.82;33.42;95293.13;4971051;28;20204;-79
2021/07/12 05:39:53;;;;;;;2.55;1.30;;;;;;;27.92;34.41;95285.53;4973991;28;20217;-77
2021/07/12 05:42:19;;;;;;;1.38;1.27;;;;;;;28.08;33.56;95294.34;4972315;28;20216;-77
2021/07/12 05:44:44;;;;;;;1.80;1.38;;;;;;;27.86;34.36;95291.91;4973816;28;20201;-78
2021/07/12 05:47:09;;;;;;;1.92;1.63;;;;;;;28.00;33.67;95296.72;4970801;28;20581;-77
2021/07/12 05:49:35;;;;;;;1.60;1.50;;;;;;;28.03;34.10;95304.22;4972394;28;20709;-76
2021/07/12 05:52:00;;;;;;;1.40;1.30;;;;;;;27.75;35.19;95297.47;4971853;28;20632;-77
2021/07/12 05:54:25;;;;;;;2.15;1.35;;;;;;;28.93;32.80;95302.75;4973323;28;20232;-78
2021/07/12 05:56:51;;;;;;;2.33;1.52;;;;;;;28.63;33.48;95292.88;4973117;28;20172;-78
2021/07/12 05:59:16;;;;;;;1.38;1.27;;;;;;;29.21;32.49;95295.22;4970787;28;20675;-78
2021/07/12 06:01:41;;;;;;;2.05;1.25;;;;;;;28.50;33.72;95280.81;4973450;28;20299;-79
2021/07/12 06:04:06;;;;;;;1.00;1.00;;;;;;;29.19;32.31;95284.81;4974397;28;20201;-77
2021/07/12 06:06:32;;;;;;;1.40;1.30;;;;;;;29.57;31.88;95283.38;4972729;28;20235;-78
2021/07/12 06:08:57;;;;;;;1.35;1.25;;;;;;;28.46;33.21;95282.44;4971928;28;20192;-77
2021/07/12 06:11:22;;;;;;;1.50;1.40;;;;;;;28.03;34.06;95274.88;4973920;28;20192;-78
2021/07/12 06:13:48;;;;;;;3.35;1.45;;;;;;;27.00;36.04;95278.91;4956683;28;20754;-78
2021/07/12 06:16:13;;;;;;;4.38;1.30;;;;;;;26.19;38.45;95273.69;4972923;28;20321;-77
2021/07/12 06:18:39;;;;;;;2.05;1.10;;;;;;;25.62;38.99;95276.81;4972736;28;20176;-77
2021/07/12 06:21:04;;;;;;;1.45;1.30;;;;;;;25.53;39.86;95272.97;4971718;28;20191;-77
2021/07/12 06:23:29;;;;;;;2.08;1.20;;;;;;;25.05;41.16;95274.47;4972074;28;20213;-77
2021/07/12 06:25:55;;;;;;;1.45;1.33;;;;;;;25.26;41.52;95280.84;4956248;28;20243;-78
2021/07/12 06:28:20;;;;;;;1.40;1.20;;;;;;;24.26;43.41;95277.16;4972825;28;20659;-77
2021/07/12 06:30:46;;;;;;;2.00;1.48;;;;;;;23.78;44.29;95276.81;4971278;28;20667;-76
2021/07/12 06:33:11;;;;;;;1.63;1.52;;;;;;;24.04;44.06;95276.25;4969508;28;20272;-78
2021/07/12 06:35:36;;;;;;;2.08;1.55;;;;;;;24.29;43.92;95282.00;4953216;29;20228;-77
2021/07/12 06:38:02;;;;;;;1.45;1.35;;;;;;;24.16;43.87;95279.63;4937175;29;20192;-77
2021/07/12 06:40:27;;;;;;;3.20;1.40;;;;;;;24.10;44.03;95282.44;4954276;28;20185;-78
2021/07/12 06:42:53;;;;;;;2.28;1.30;;;;;;;23.85;45.36;95278.28;4987088;28;20223;-79
2021/07/12 06:45:19;;;;;;;1.77;1.42;;;;;;;23.25;47.10;95267.25;4973438;28;20176;-79
2021/07/12 06:47:44;;;;;;;2.03;1.50;;;;;;;23.45;46.23;95260.53;4956800;28;20180;-78
2021/07/12 06:50:10;;;;;;;1.38;1.25;;;;;;;23.62;45.09;95262.47;4977163;28;20199;-78
2021/07/12 06:52:35;;;;;;;1.80;1.30;;;;;;;23.29;46.52;95250.66;4983804;28;20271;-77
2021/07/12 06:55:01;;;;;;;3.95;1.15;;;;;;;23.15;46.97;95249.31;4989127;28;20185;-79
2021/07/12 06:57:26;;;;;;;2.03;1.38;;;;;;;22.46;48.96;95245.63;4967192;28;20239;-77
2021/07/12 06:59:51;;;;;;;2.80;1.48;;;;;;;22.83;47.58;95240.91;4962518;28;20191;-78
2021/07/12 07:02:17;;;;;;;1.83;1.40;;;;;;;23.30;47.01;95233.72;4958936;28;20287;-78
2021/07/12 07:04:42;;;;;;;2.00;1.70;;;;;;;23.22;47.78;95223.47;4972908;28;20204;-77
2021/07/12 07:07:08;;;;;;;1.45;1.25;;;;;;;23.27;48.00;95218.28;4940609;29;20193;-77
2021/07/12 07:09:33;;;;;;;3.38;1.70;;;;;;;23.68;47.20;95221.78;4956972;29;20177;-76
2021/07/12 07:11:59;;;;;;;2.08;1.70;;;;;;;23.39;48.41;95213.75;4956441;29;20201;-77
2021/07/12 07:14:24;;;;;;;2.85;1.45;;;;;;;23.50;48.05;95221.91;4969440;28;20316;-77
2021/07/12 07:16:50;;;;;;;2.25;2.00;;;;;;;23.76;47.67;95218.72;4972540;28;20195;-77
2021/07/12 07:19:15;;;;;;;2.90;1.52;;;;;;;23.48;47.95;95216.03;4959428;28;20260;-78
2021/07/12 07:21:40;;;;;;;2.20;2.00;;;;;;;24.08;46.05;95199.66;4975216;28;20552;-77
2021/07/12 07:24:06;;;;;;;1.75;1.50;;;;;;;24.11;46.15;95193.84;4958445;28;20684;-78
2021/07/12 07:26:31;;;;;;;3.58;1.60;;;;;;;24.00;46.52;95183.09;4975784;28;20195;-77
2021/07/12 07:28:57;;;;;;;2.25;1.83;;;;;;;24.04;46.90;95183.41;4977363;28;20183;-78
2021/07/12 07:31:23;;;;;;;2.40;1.80;;;;;;;23.99;48.21;95178.03;4959482;28;20275;-78
2021/07/12 07:33:48;;;;;;;2.65;1.90;;;;;;;24.20;46.94;95184.44;4958256;28;20291;-77
2021/07/12 07:36:13;;;;;;;2.88;1.75;;;;;;;24.39;47.05;95190.38;4977269;28;20204;-78
2021/07/12 07:38:39;;;;;;;2.00;1.90;;;;;;;24.78;44.60;95183.22;4976240;28;20644;-78
2021/07/12 07:41:04;;;;;;;1.45;1.35;;;;;;;25.07;44.38;95166.09;4959560;28;20212;-77
2021/07/12 07:43:30;;;;;;;3.80;1.70;;;;;;;24.92;44.26;95168.56;4966908;28;20224;-77
2021/07/12 07:45:55;;;;;;;2.20;1.52;;;;;;;25.32;42.82;95159.47;4964506;28;20210;-78
2021/07/12 07:48:20;;;;;;;2.67;1.58;;;;;;;25.41;42.50;95158.78;4954941;28;20185;-78
2021/07/12 07:50:46;;;;;;;1.50;1.40;;;;;;;25.29;42.10;95157.31;4989419;28;20192;-78
2021/07/12 07:53:11;;;;;;;1.63;1.50;;;;;;;25.46;42.37;95160.72;4956857;28;20302;-77
2021/07/12 07:55:37;;;;;;;1.80;1.70;;;;;;;24.88;42.42;95171.94;4952550;28;20197;-78
2021/07/12 07:58:03;;;;;;;1.75;1.60;;;;;;;24.01;43.36;95173.28;4951008;28;20177;-77
2021/07/12 08:00:29;;;;;;;2.35;1.63;;;;;;;24.58;44.00;95165.16;4956158;28;20193;-76
2021/07/12 08:02:55;;;;;;;2.30;1.73;;;;;;;25.14;42.14;95166.72;4963775;28;20209;-77
2021/07/12 08:05:20;;;;;;;6.10;1.80;;;;;;;24.79;42.79;95150.31;4969284;28;20508;-77
2021/07/12 08:07:46;;;;;;;3.25;1.70;;;;;;;25.13;43.98;95154.50;4972015;28;20184;-78
2021/07/12 08:10:13;;;;;;;3.00;1.60;;;;;;;24.53;44.96;95152.63;4974967;28;20723;-78
2021/07/12 08:12:39;;;;;;;2.67;1.80;;;;;;;24.19;45.02;95143.84;4975653;28;20560;-78
2021/07/12 08:15:07;;;;;;;2.50;1.90;;;;;;;24.05;45.90;95144.44;4974747;28;20636;-77
2021/07/12 08:17:32;;;;;;;6.78;1.90;;;;;;;24.17;46.32;95134.53;4958019;28;20198;-78
2021/07/12 08:19:57;;;;;;;2.35;2.10;;;;;;;24.00;46.32;95126.59;4958029;28;20184;-79
2021/07/12 08:22:23;;;;;;;2.95;1.60;;;;;;;23.76;46.48;95125.91;4974353;28;20209;-78
2021/07/12 08:24:48;;;;;;;3.47;1.60;;;;;;;23.38;46.44;95132.66;4971397;28;20293;-78
2021/07/12 08:27:13;;;;;;;2.53;1.60;;;;;;;23.30;46.92;95119.81;4972266;28;20217;-78
2021/07/12 08:29:39;;;;;;;1.58;1.35;;;;;;;23.52;46.36;95121.78;4972332;28;20670;-77
2021/07/12 08:32:04;;;;;;;3.42;1.50;;;;;;;23.51;46.67;95113.03;4958098;28;20184;-78
2021/07/12 08:34:29;;;;;;;1.88;1.50;;;;;;;23.83;46.45;95113.31;4974780;28;20538;-77
2021/07/12 08:36:55;;;;;;;1.70;1.48;;;;;;;23.78;46.00;95113.25;4975119;28;20192;-77
2021/07/12 08:39:20;;;;;;;3.60;1.77;;;;;;;24.26;45.44;95111.84;4956700;28;20208;-78
2021/07/12 08:41:46;;;;;;;2.53;1.50;;;;;;;24.24;47.11;95125.38;4954897;28;20712;-78
2021/07/12 08:44:12;;;;;;;2.08;1.70;;;;;;;24.13;45.71;95118.31;4970695;28;20205;-77
2021/07/12 08:46:38;;;;;;;1.90;1.70;;;;;;;24.18;46.00;95114.91;4954743;29;20184;-77
2021/07/12 08:49:03;;;;;;;2.55;1.60;;;;;;;24.26;46.26;95112.66;4960780;28;20176;-77
2021/07/12 08:51:28;;;;;;;2.42;1.58;;;;;;;24.08;46.61;95120.88;4974356;28;20271;-77
2021/07/12 08:53:55;;;;;;;2.78;1.52;;;;;;;24.19;46.87;95125.28;4975673;28;20227;-78
2021/07/12 08:56:20;;;;;;;1.83;1.73;;;;;;;24.35;46.01;95133.50;4974039;28;20304;-76
2021/07/12 08:58:46;;;;;;;2.63;1.77;;;;;;;23.99;46.59;95119.69;4973748;28;20647;-77
2021/07/12 09:01:11;;;;;;;2.03;1.50;;;;;;;23.94;46.38;95112.47;4971581;28;20259;-76
2021/07/12 09:03:38;;;;;;;3.17;1.70;;;;;;;23.61;47.17;95107.13;4972636;28;20255;-75
2021/07/12 09:06:08;;;;;;;3.30;1.70;;;;;;;23.65;48.16;95121.50;4972977;28;20267;-75
2021/07/12 09:08:34;;;;;;;3.13;1.50;;;;;;;23.91;48.49;95128.84;4974084;28;20173;-74
2021/07/12 09:11:04;;;;;;;2.30;1.70;;;;;;;24.25;46.85;95120.88;4953364;28;20679;-75
2021/07/12 09:14:03;;;;;;;1.63;1.50;;;;;;;24.13;46.51;95114.88;4973792;28;20220;-75
2021/07/12 09:16:37;;;;;;;1.90;1.70;;;;;;;24.67;46.45;95131.84;4972877;28;20271;-75
2021/07/12 09:19:07;;;;;;;2.05;1.50;;;;;;;24.78;43.79;95138.88;4959679;28;20178;-76
2021/07/12 09:21:53;;;;;;;3.17;2.03;;;;;;;24.61;44.19;95146.09;4980816;28;20191;-75
2021/07/12 09:24:32;;;;;;;2.95;1.70;;;;;;;24.73;44.52;95148.63;4988718;28;20243;-73
2021/07/12 09:27:25;;;;;;;2.20;2.00;;;;;;;24.64;45.15;95145.59;4956636;28;20263;-77
2021/07/12 09:29:55;;;;;;;2.53;1.40;;;;;;;24.74;44.01;95148.41;4985900;28;20199;-76
2021/07/12 09:32:23;;;;;;;1.90;1.30;;;;;;;25.03;43.53;95141.09;4971925;28;20239;-76
2021/07/12 09:34:50;;;;;;;3.35;1.63;;;;;;;24.67;42.04;95144.31;4972205;28;20191;-75
2021/07/12 09:37:18;;;;;;;2.15;1.88;;;;;;;24.94;42.48;95145.19;4972341;28;20173;-76
2021/07/12 09:39:48;;;;;;;1.92;1.50;;;;;;;25.01;42.80;95143.16;4972626;28;20168;-77
2021/07/12 09:42:17;;;;;;;2.70;1.60;;;;;;;24.92;42.49;95139.34;4955019;28;20240;-77
2021/07/12 09:44:47;;;;;;;2.40;1.80;;;;;;;24.56;43.11;95128.25;4972903;28;20206;-77
2021/07/12 09:47:19;;;;;;;1.50;1.40;;;;;;;24.65;41.90;95130.47;4972940;28;20173;-77
2021/07/12 09:49:45;;;;;;;3.42;1.70;;;;;;;24.65;43.12;95127.81;4972587;28;20176;-78
2021/07/12 09:52:15;;;;;;;4.63;1.63;;;;;;;24.39;44.62;95108.09;4972303;28;20188;-77
2021/07/12 09:54:42;;;;;;;2.20;1.83;;;;;;;24.70;43.05;95107.44;4978975;28;20173;-76
2021/07/12 09:57:09;;;;;;;3.35;1.70;;;;;;;24.85;44.44;95112.97;4971977;28;20181;-77
2021/07/12 09:59:35;;;;;;;2.15;1.88;;;;;;;24.64;43.47;95112.94;4973265;28;20181;-77
2021/07/12 10:02:00;;;;;;;2.00;1.63;;;;;;;24.63;43.47;95106.81;4971801;28;20188;-76
2021/07/12 10:04:26;;;;;;;2.38;1.58;;;;;;;24.58;43.75;95115.53;4971808;28;20247;-77
2021/07/12 10:06:53;;;;;;;2.72;1.55;;;;;;;24.81;42.14;95119.78;4952983;29;20641;-77
2021/07/12 10:09:22;;;;;;;1.67;1.40;;;;;;;24.70;42.58;95117.25;4937050;29;20196;-76
2021/07/12 10:11:53;;;;;;;1.50;1.40;;;;;;;25.16;41.93;95115.19;4952792;29;20646;-77
2021/07/12 10:14:19;;;;;;;2.28;1.40;;;;;;;24.99;40.75;95105.41;4941420;28;20185;-77
2021/07/12 10:16:44;;;;;;;3.08;1.70;;;;;;;24.94;42.01;95110.66;4952294;29;20185;-77
2021/07/12 10:19:10;;;;;;;4.05;1.73;;;;;;;24.91;43.25;95113.00;4973146;28;20184;-76
2021/07/12 10:21:38;;;;;;;1.63;1.40;;;;;;;25.00;42.59;95122.97;4991329;28;20199;-76
2021/07/12 10:24:05;;;;;;;1.95;1.75;;;;;;;25.18;41.62;95123.69;4991004;28;20207;-77
2021/07/12 10:26:50;;;;;;;1.67;1.52;;;;;;;25.38;41.75;95122.09;4970272;28;20184;-77
2021/07/12 10:29:26;;;;;;;3.40;1.40;;;;;;;25.29;41.72;95122.78;4971147;28;20285;-77
2021/07/12 10:32:01;;;;;;;1.95;1.80;;;;;;;25.46;41.68;95125.34;4971403;28;20203;-78
2021/07/12 10:34:36;;;;;;;3.53;1.80;;;;;;;25.10;41.21;95120.47;4972136;28;20175;-77
2021/07/12 10:37:04;;;;;;;3.30;1.73;;;;;;;25.19;42.33;95120.03;4970786;28;20554;-76
2021/07/12 10:40:11;;;;;;;1.98;1.67;;;;;;;25.32;40.62;95127.59;4972355;28;20263;-75
2021/07/12 10:42:45;;;;;;;2.25;1.55;;;;;;;25.43;41.10;95123.97;4955222;28;20204;-76
2021/07/12 10:45:38;;;;;;;2.47;2.05;;;;;;;25.09;43.28;95104.75;4972840;28;20250;-76
2021/07/12 10:48:09;;;;;;;2.60;1.65;;;;;;;25.12;41.10;95081.16;4961345;28;20280;-76
2021/07/12 10:50:34;;;;;;;1.70;1.58;;;;;;;25.27;41.54;95090.34;4955412;28;20567;-75
2021/07/12 10:53:15;;;;;;;2.15;1.65;;;;;;;25.48;41.21;95101.97;4972303;28;20201;-76
2021/07/12 10:55:45;;;;;;;2.13;1.92;;;;;;;26.14;40.63;95121.16;4972678;28;20629;-75
2021/07/12 10:58:34;;;;;;;1.77;1.67;;;;;;;26.43;40.33;95117.16;4978048;28;20192;-76
2021/07/12 11:01:02;;;;;;;1.77;1.67;;;;;;;26.35;40.08;95128.25;4973015;28;20203;-76
2021/07/12 11:03:33;;;;;;;2.08;1.85;;;;;;;26.07;40.12;95115.28;4970882;28;20211;-75
2021/07/12 11:05:59;;;;;;;2.70;1.65;;;;;;;26.27;40.40;95124.19;4971349;28;20660;-76
2021/07/12 11:08:46;;;;;;;1.75;1.60;;;;;;;26.44;40.43;95134.72;4971691;28;20215;-78
2021/07/12 11:11:18;;;;;;;2.10;1.77;;;;;;;26.30;39.80;95132.72;4972112;28;20176;-78
2021/07/12 11:13:58;;;;;;;2.72;1.52;;;;;;;26.26;38.79;95146.56;4954088;28;20197;-77
2021/07/12 11:16:38;;;;;;;1.65;1.55;;;;;;;26.46;39.66;95137.94;4968595;28;20661;-77
2021/07/12 11:19:31;;;;;;;2.85;1.90;;;;;;;26.78;38.78;95135.19;4964635;28;20287;-77
2021/07/12 11:22:12;;;;;;;2.35;1.60;;;;;;;26.47;39.31;95134.19;4951721;29;20244;-76
2021/07/12 11:24:37;;;;;;;1.90;1.80;;;;;;;26.30;40.57;95122.06;4953555;29;20227;-77
2021/07/12 11:27:05;;;;;;;2.70;1.98;;;;;;;26.13;40.68;95124.88;4952473;29;20693;-76
2021/07/12 11:29:31;;;;;;;1.98;1.77;;;;;;;26.60;40.97;95118.84;4961293;28;20268;-76
2021/07/12 11:32:02;;;;;;;2.08;1.85;;;;;;;26.25;40.70;95121.00;4955017;28;20680;-77
2021/07/12 11:34:37;;;;;;;2.47;1.50;;;;;;;26.36;40.79;95113.06;4972361;28;20180;-77
2021/07/12 11:37:06;;;;;;;1.70;1.60;;;;;;;26.42;40.68;95096.91;4971558;28;20648;-77
2021/07/12 11:39:33;;;;;;;1.83;1.73;;;;;;;26.62;40.06;95101.53;4973086;28;20271;-77